sensor_id;sensor_type;location;lat;lon;timestamp;temperature;humidity
7028;DHT22;3555;53.248;10.336;2024-02-26T00:01:49;4.90;99.90
7028;DHT22;3555;53.248;10.336;2024-02-26T00:04:18;4.90;99.90
7028;DHT22;3555;53.248;10.336;2024-02-26T00:06:45;4.90;99.90
7028;DHT22;3555;53.248;10.336;2024-02-26T00:09:11;4.80;99.90
7028;DHT22;3555;53.248;10.336;2024-02-26T00:11:38;4.80;99.90
7028;DHT22;3555;53.248;10.336;2024-02-26T00:14:05;4.80;99.90
7028;DHT22;3555;53.248;10.336;2024-02-26T00:16:32;4.70;99.90
7028;DHT22;3555;53.248;10.336;2024-02-26T00:18:59;4.70;99.90
7028;DHT22;3555;53.248;10.336;2024-02-26T00:21:28;4.70;99.90
7028;DHT22;3555;53.248;10.336;2024-02-26T00:23:54;4.60;99.90
7028;DHT22;3555;53.248;10.336;2024-02-26T00:26:21;4.60;99.90
7028;DHT22;3555;53.248;10.336;2024-02-26T00:28:48;4.60;99.90
7028;DHT22;3555;53.248;10.336;2024-02-26T00:31:15;4.50;99.90
7028;DHT22;3555;53.248;10.336;2024-02-26T00:33:42;4.60;99.90
7028;DHT22;3555;53.248;10.336;2024-02-26T00:36:08;4.50;99.90
7028;DHT22;3555;53.248;10.336;2024-02-26T00:38:37;4.50;99.90
7028;DHT22;3555;53.248;10.336;2024-02-26T00:41:05;4.40;99.90
7028;DHT22;3555;53.248;10.336;2024-02-26T00:43:31;4.30;99.90
7028;DHT22;3555;53.248;10.336;2024-02-26T00:45:58;4.30;99.90
7028;DHT22;3555;53.248;10.336;2024-02-26T00:48:25;4.30;99.90
7028;DHT22;3555;53.248;10.336;2024-02-26T00:50:52;4.30;99.90
7028;DHT22;3555;53.248;10.336;2024-02-26T00:53:19;4.30;99.90
7028;DHT22;3555;53.248;10.336;2024-02-26T00:55:47;4.30;99.90
7028;DHT22;3555;53.248;10.336;2024-02-26T00:58:14;4.20;99.90
7028;DHT22;3555;53.248;10.336;2024-02-26T01:00:42;4.20;99.90
7028;DHT22;3555;53.248;10.336;2024-02-26T01:03:08;4.20;99.90
7028;DHT22;3555;53.248;10.336;2024-02-26T01:05:36;4.20;99.90
7028;DHT22;3555;53.248;10.336;2024-02-26T01:08:03;4.20;99.90
7028;DHT22;3555;53.248;10.336;2024-02-26T01:10:30;4.20;99.90
7028;DHT22;3555;53.248;10.336;2024-02-26T01:12:58;4.10;99.90
7028;DHT22;3555;53.248;10.336;2024-02-26T01:15:25;4.20;99.90
7028;DHT22;3555;53.248;10.336;2024-02-26T01:17:52;3.90;99.90
7028;DHT22;3555;53.248;10.336;2024-02-26T01:20:19;3.80;99.90
7028;DHT22;3555;53.248;10.336;2024-02-26T01:22:46;3.70;99.90
7028;DHT22;3555;53.248;10.336;2024-02-26T01:25:13;3.70;99.90
7028;DHT22;3555;53.248;10.336;2024-02-26T01:27:41;3.70;99.90
7028;DHT22;3555;53.248;10.336;2024-02-26T01:30:11;3.60;99.90
7028;DHT22;3555;53.248;10.336;2024-02-26T01:32:38;3.60;99.90
7028;DHT22;3555;53.248;10.336;2024-02-26T01:35:05;3.60;99.90
7028;DHT22;3555;53.248;10.336;2024-02-26T01:37:35;3.60;99.90
7028;DHT22;3555;53.248;10.336;2024-02-26T01:40:02;3.60;99.90
7028;DHT22;3555;53.248;10.336;2024-02-26T01:42:30;3.50;99.90
7028;DHT22;3555;53.248;10.336;2024-02-26T01:44:58;3.30;99.90
7028;DHT22;3555;53.248;10.336;2024-02-26T01:47:26;3.30;99.90
7028;DHT22;3555;53.248;10.336;2024-02-26T01:49:54;3.20;99.90
7028;DHT22;3555;53.248;10.336;2024-02-26T01:52:21;3.20;99.90
7028;DHT22;3555;53.248;10.336;2024-02-26T01:54:48;3.30;99.90
7028;DHT22;3555;53.248;10.336;2024-02-26T01:57:16;3.30;99.90
7028;DHT22;3555;53.248;10.336;2024-02-26T01:59:44;3.30;99.90
7028;DHT22;3555;53.248;10.336;2024-02-26T02:02:11;3.30;99.90
7028;DHT22;3555;53.248;10.336;2024-02-26T02:04:40;3.30;99.90
7028;DHT22;3555;53.248;10.336;2024-02-26T02:07:07;3.20;99.90
7028;DHT22;3555;53.248;10.336;2024-02-26T02:09:34;3.20;99.90
7028;DHT22;3555;53.248;10.336;2024-02-26T02:12:01;3.20;99.90
7028;DHT22;3555;53.248;10.336;2024-02-26T02:14:28;3.20;99.90
7028;DHT22;3555;53.248;10.336;2024-02-26T02:16:55;3.30;99.90
7028;DHT22;3555;53.248;10.336;2024-02-26T02:19:22;3.30;99.90
7028;DHT22;3555;53.248;10.336;2024-02-26T02:21:50;3.20;99.90
7028;DHT22;3555;53.248;10.336;2024-02-26T02:24:17;3.20;99.90
7028;DHT22;3555;53.248;10.336;2024-02-26T02:26:44;3.20;99.90
7028;DHT22;3555;53.248;10.336;2024-02-26T02:29:12;3.20;99.90
7028;DHT22;3555;53.248;10.336;2024-02-26T02:31:39;3.20;99.90
7028;DHT22;3555;53.248;10.336;2024-02-26T02:34:07;3.20;99.90
7028;DHT22;3555;53.248;10.336;2024-02-26T02:36:34;3.30;99.90
7028;DHT22;3555;53.248;10.336;2024-02-26T02:39:03;3.30;99.90
7028;DHT22;3555;53.248;10.336;2024-02-26T02:41:29;3.30;99.90
7028;DHT22;3555;53.248;10.336;2024-02-26T02:43:56;3.30;99.90
7028;DHT22;3555;53.248;10.336;2024-02-26T02:46:23;3.30;99.90
7028;DHT22;3555;53.248;10.336;2024-02-26T02:48:50;3.30;99.90
7028;DHT22;3555;53.248;10.336;2024-02-26T02:51:17;3.20;99.90
7028;DHT22;3555;53.248;10.336;2024-02-26T02:53:44;3.20;99.90
7028;DHT22;3555;53.248;10.336;2024-02-26T02:56:12;3.20;99.90
7028;DHT22;3555;53.248;10.336;2024-02-26T02:58:39;3.10;99.90
7028;DHT22;3555;53.248;10.336;2024-02-26T03:01:06;3.00;99.90
7028;DHT22;3555;53.248;10.336;2024-02-26T03:03:32;2.90;99.90
7028;DHT22;3555;53.248;10.336;2024-02-26T03:05:59;2.80;99.90
7028;DHT22;3555;53.248;10.336;2024-02-26T03:08:26;2.80;99.90
7028;DHT22;3555;53.248;10.336;2024-02-26T03:10:53;2.80;99.90
7028;DHT22;3555;53.248;10.336;2024-02-26T03:13:21;2.80;99.90
7028;DHT22;3555;53.248;10.336;2024-02-26T03:15:48;2.80;99.90
7028;DHT22;3555;53.248;10.336;2024-02-26T03:18:15;2.70;99.90
7028;DHT22;3555;53.248;10.336;2024-02-26T03:20:42;2.80;99.90
7028;DHT22;3555;53.248;10.336;2024-02-26T03:23:09;2.70;99.90
7028;DHT22;3555;53.248;10.336;2024-02-26T03:25:38;2.60;99.90
7028;DHT22;3555;53.248;10.336;2024-02-26T03:28:05;2.60;99.90
7028;DHT22;3555;53.248;10.336;2024-02-26T03:30:34;2.60;99.90
7028;DHT22;3555;53.248;10.336;2024-02-26T03:33:01;2.60;99.90
7028;DHT22;3555;53.248;10.336;2024-02-26T03:35:28;2.60;99.90
7028;DHT22;3555;53.248;10.336;2024-02-26T03:37:54;2.70;99.90
7028;DHT22;3555;53.248;10.336;2024-02-26T03:40:21;2.70;99.90
7028;DHT22;3555;53.248;10.336;2024-02-26T03:42:48;2.60;99.90
7028;DHT22;3555;53.248;10.336;2024-02-26T03:45:15;2.60;99.90
7028;DHT22;3555;53.248;10.336;2024-02-26T03:47:43;2.60;99.90
7028;DHT22;3555;53.248;10.336;2024-02-26T03:50:10;2.40;99.90
7028;DHT22;3555;53.248;10.336;2024-02-26T03:52:37;2.20;99.90
7028;DHT22;3555;53.248;10.336;2024-02-26T03:55:04;2.00;99.90
7028;DHT22;3555;53.248;10.336;2024-02-26T03:57:31;2.10;99.90
7028;DHT22;3555;53.248;10.336;2024-02-26T03:59:58;2.10;99.90
7028;DHT22;3555;53.248;10.336;2024-02-26T04:02:25;2.00;99.90
7028;DHT22;3555;53.248;10.336;2024-02-26T04:04:53;2.00;99.90
7028;DHT22;3555;53.248;10.336;2024-02-26T04:07:20;2.10;99.90
7028;DHT22;3555;53.248;10.336;2024-02-26T04:09:47;2.20;99.90
7028;DHT22;3555;53.248;10.336;2024-02-26T04:12:14;2.20;99.90
7028;DHT22;3555;53.248;10.336;2024-02-26T04:14:41;2.10;99.90
7028;DHT22;3555;53.248;10.336;2024-02-26T04:17:08;2.10;99.90
7028;DHT22;3555;53.248;10.336;2024-02-26T04:19:34;2.10;99.90
7028;DHT22;3555;53.248;10.336;2024-02-26T04:22:03;2.10;99.90
7028;DHT22;3555;53.248;10.336;2024-02-26T04:24:30;2.20;99.90
7028;DHT22;3555;53.248;10.336;2024-02-26T04:26:57;2.30;99.90
7028;DHT22;3555;53.248;10.336;2024-02-26T04:29:24;2.30;99.90
7028;DHT22;3555;53.248;10.336;2024-02-26T04:31:51;2.30;99.90
7028;DHT22;3555;53.248;10.336;2024-02-26T04:34:18;2.40;99.90
7028;DHT22;3555;53.248;10.336;2024-02-26T04:36:44;2.30;99.90
7028;DHT22;3555;53.248;10.336;2024-02-26T04:39:14;2.30;99.90
7028;DHT22;3555;53.248;10.336;2024-02-26T04:41:41;2.30;99.90
7028;DHT22;3555;53.248;10.336;2024-02-26T04:44:08;2.40;99.90
7028;DHT22;3555;53.248;10.336;2024-02-26T04:46:35;2.40;99.90
7028;DHT22;3555;53.248;10.336;2024-02-26T04:49:02;2.40;99.90
7028;DHT22;3555;53.248;10.336;2024-02-26T04:51:29;2.40;99.90
7028;DHT22;3555;53.248;10.336;2024-02-26T04:53:55;2.40;99.90
7028;DHT22;3555;53.248;10.336;2024-02-26T04:56:25;2.40;99.90
7028;DHT22;3555;53.248;10.336;2024-02-26T04:58:52;2.30;99.90
7028;DHT22;3555;53.248;10.336;2024-02-26T05:01:19;2.30;99.90
7028;DHT22;3555;53.248;10.336;2024-02-26T05:03:46;2.30;99.90
7028;DHT22;3555;53.248;10.336;2024-02-26T05:06:13;2.30;99.90
7028;DHT22;3555;53.248;10.336;2024-02-26T05:08:40;2.30;99.90
7028;DHT22;3555;53.248;10.336;2024-02-26T05:11:07;2.40;99.90
7028;DHT22;3555;53.248;10.336;2024-02-26T05:13:35;2.40;99.90
7028;DHT22;3555;53.248;10.336;2024-02-26T05:16:02;2.40;99.90
7028;DHT22;3555;53.248;10.336;2024-02-26T05:18:29;2.30;99.90
7028;DHT22;3555;53.248;10.336;2024-02-26T05:20:56;2.30;99.90
7028;DHT22;3555;53.248;10.336;2024-02-26T05:23:23;2.40;99.90
7028;DHT22;3555;53.248;10.336;2024-02-26T05:25:50;2.40;99.90
7028;DHT22;3555;53.248;10.336;2024-02-26T05:28:17;2.40;99.90
7028;DHT22;3555;53.248;10.336;2024-02-26T05:30:47;2.40;99.90
7028;DHT22;3555;53.248;10.336;2024-02-26T05:33:14;2.40;99.90
7028;DHT22;3555;53.248;10.336;2024-02-26T05:35:41;2.40;99.90
7028;DHT22;3555;53.248;10.336;2024-02-26T05:38:07;2.50;99.90
7028;DHT22;3555;53.248;10.336;2024-02-26T05:40:34;2.40;99.90
7028;DHT22;3555;53.248;10.336;2024-02-26T05:43:01;2.40;99.90
7028;DHT22;3555;53.248;10.336;2024-02-26T05:45:28;2.40;99.90
7028;DHT22;3555;53.248;10.336;2024-02-26T05:47:56;2.40;99.90
7028;DHT22;3555;53.248;10.336;2024-02-26T05:50:23;2.60;99.90
7028;DHT22;3555;53.248;10.336;2024-02-26T05:52:50;2.50;99.90
7028;DHT22;3555;53.248;10.336;2024-02-26T05:55:17;2.50;99.90
7028;DHT22;3555;53.248;10.336;2024-02-26T05:57:44;2.50;99.90
7028;DHT22;3555;53.248;10.336;2024-02-26T06:00:12;2.50;99.90
7028;DHT22;3555;53.248;10.336;2024-02-26T06:02:39;2.50;99.90
7028;DHT22;3555;53.248;10.336;2024-02-26T06:05:07;2.70;99.90
7028;DHT22;3555;53.248;10.336;2024-02-26T06:07:34;2.60;99.90
7028;DHT22;3555;53.248;10.336;2024-02-26T06:10:01;2.60;99.90
7028;DHT22;3555;53.248;10.336;2024-02-26T06:12:30;2.60;99.90
7028;DHT22;3555;53.248;10.336;2024-02-26T06:14:58;2.70;99.90
7028;DHT22;3555;53.248;10.336;2024-02-26T06:17:26;2.70;99.90
7028;DHT22;3555;53.248;10.336;2024-02-26T06:19:53;2.70;99.90
7028;DHT22;3555;53.248;10.336;2024-02-26T06:22:21;2.70;99.90
7028;DHT22;3555;53.248;10.336;2024-02-26T06:24:48;2.70;99.90
7028;DHT22;3555;53.248;10.336;2024-02-26T06:27:15;2.70;99.90
7028;DHT22;3555;53.248;10.336;2024-02-26T06:29:42;2.70;99.90
7028;DHT22;3555;53.248;10.336;2024-02-26T06:32:09;2.70;99.90
7028;DHT22;3555;53.248;10.336;2024-02-26T06:34:35;2.80;99.90
7028;DHT22;3555;53.248;10.336;2024-02-26T06:37:03;2.70;99.90
7028;DHT22;3555;53.248;10.336;2024-02-26T06:39:32;2.70;99.90
7028;DHT22;3555;53.248;10.336;2024-02-26T06:41:59;2.70;99.90
7028;DHT22;3555;53.248;10.336;2024-02-26T06:44:27;2.70;99.90
7028;DHT22;3555;53.248;10.336;2024-02-26T06:46:57;2.70;99.90
7028;DHT22;3555;53.248;10.336;2024-02-26T06:49:25;2.40;99.90
7028;DHT22;3555;53.248;10.336;2024-02-26T06:51:51;2.40;99.90
7028;DHT22;3555;53.248;10.336;2024-02-26T06:54:18;2.40;99.90
7028;DHT22;3555;53.248;10.336;2024-02-26T06:56:46;2.40;99.90
7028;DHT22;3555;53.248;10.336;2024-02-26T06:59:13;2.40;99.90
7028;DHT22;3555;53.248;10.336;2024-02-26T07:01:41;2.40;99.90
7028;DHT22;3555;53.248;10.336;2024-02-26T07:04:07;2.50;99.90
7028;DHT22;3555;53.248;10.336;2024-02-26T07:06:36;2.50;99.90
7028;DHT22;3555;53.248;10.336;2024-02-26T07:09:03;2.40;99.90
7028;DHT22;3555;53.248;10.336;2024-02-26T07:11:30;2.50;99.90
7028;DHT22;3555;53.248;10.336;2024-02-26T07:13:58;2.50;99.90
7028;DHT22;3555;53.248;10.336;2024-02-26T07:16:26;2.60;99.90
7028;DHT22;3555;53.248;10.336;2024-02-26T07:18:53;2.60;99.90
7028;DHT22;3555;53.248;10.336;2024-02-26T07:21:20;2.70;99.90
7028;DHT22;3555;53.248;10.336;2024-02-26T07:23:47;2.80;99.90
7028;DHT22;3555;53.248;10.336;2024-02-26T07:26:14;2.90;99.90
7028;DHT22;3555;53.248;10.336;2024-02-26T07:28:42;2.90;99.90
7028;DHT22;3555;53.248;10.336;2024-02-26T07:31:11;2.90;99.90
7028;DHT22;3555;53.248;10.336;2024-02-26T07:33:37;2.90;99.90
7028;DHT22;3555;53.248;10.336;2024-02-26T07:36:05;2.90;99.90
7028;DHT22;3555;53.248;10.336;2024-02-26T07:38:32;2.80;99.90
7028;DHT22;3555;53.248;10.336;2024-02-26T07:40:58;2.80;99.90
7028;DHT22;3555;53.248;10.336;2024-02-26T07:43:25;2.90;99.90
7028;DHT22;3555;53.248;10.336;2024-02-26T07:45:52;2.90;99.90
7028;DHT22;3555;53.248;10.336;2024-02-26T07:48:20;3.00;99.90
7028;DHT22;3555;53.248;10.336;2024-02-26T07:50:47;3.00;99.90
7028;DHT22;3555;53.248;10.336;2024-02-26T07:53:14;3.20;99.90
7028;DHT22;3555;53.248;10.336;2024-02-26T07:55:41;3.10;99.90
7028;DHT22;3555;53.248;10.336;2024-02-26T07:58:08;3.00;99.90
7028;DHT22;3555;53.248;10.336;2024-02-26T08:00:34;3.10;99.90
7028;DHT22;3555;53.248;10.336;2024-02-26T08:03:02;3.10;99.90
7028;DHT22;3555;53.248;10.336;2024-02-26T08:05:30;3.20;99.90
7028;DHT22;3555;53.248;10.336;2024-02-26T08:07:57;3.20;99.90
7028;DHT22;3555;53.248;10.336;2024-02-26T08:10:24;3.30;99.90
7028;DHT22;3555;53.248;10.336;2024-02-26T08:12:51;3.30;99.90
7028;DHT22;3555;53.248;10.336;2024-02-26T08:15:17;3.40;99.90
7028;DHT22;3555;53.248;10.336;2024-02-26T08:17:45;3.40;99.90
7028;DHT22;3555;53.248;10.336;2024-02-26T08:20:13;3.40;99.90
7028;DHT22;3555;53.248;10.336;2024-02-26T08:22:41;3.40;99.90
7028;DHT22;3555;53.248;10.336;2024-02-26T08:25:09;3.40;99.90
7028;DHT22;3555;53.248;10.336;2024-02-26T08:27:36;3.30;99.90
7028;DHT22;3555;53.248;10.336;2024-02-26T08:30:03;3.40;99.90
7028;DHT22;3555;53.248;10.336;2024-02-26T08:32:30;3.50;99.90
7028;DHT22;3555;53.248;10.336;2024-02-26T08:34:57;3.50;99.90
7028;DHT22;3555;53.248;10.336;2024-02-26T08:37:24;3.50;99.90
7028;DHT22;3555;53.248;10.336;2024-02-26T08:39:52;3.50;99.90
7028;DHT22;3555;53.248;10.336;2024-02-26T08:42:19;3.40;99.90
7028;DHT22;3555;53.248;10.336;2024-02-26T08:44:46;3.50;99.90
7028;DHT22;3555;53.248;10.336;2024-02-26T08:47:13;3.60;99.90
7028;DHT22;3555;53.248;10.336;2024-02-26T08:49:43;3.50;99.90
7028;DHT22;3555;53.248;10.336;2024-02-26T08:52:10;3.40;99.90
7028;DHT22;3555;53.248;10.336;2024-02-26T08:54:37;3.50;99.90
7028;DHT22;3555;53.248;10.336;2024-02-26T08:57:05;3.50;99.90
7028;DHT22;3555;53.248;10.336;2024-02-26T08:59:32;3.60;99.90
7028;DHT22;3555;53.248;10.336;2024-02-26T09:01:59;3.70;99.90
7028;DHT22;3555;53.248;10.336;2024-02-26T09:04:26;3.70;99.90
7028;DHT22;3555;53.248;10.336;2024-02-26T09:06:53;3.60;99.90
7028;DHT22;3555;53.248;10.336;2024-02-26T09:09:20;3.70;99.90
7028;DHT22;3555;53.248;10.336;2024-02-26T09:11:47;3.60;99.90
7028;DHT22;3555;53.248;10.336;2024-02-26T09:14:18;3.70;99.90
7028;DHT22;3555;53.248;10.336;2024-02-26T09:16:45;3.80;99.90
7028;DHT22;3555;53.248;10.336;2024-02-26T09:19:13;3.70;99.90
7028;DHT22;3555;53.248;10.336;2024-02-26T09:21:42;3.80;99.90
7028;DHT22;3555;53.248;10.336;2024-02-26T09:24:09;3.80;99.90
7028;DHT22;3555;53.248;10.336;2024-02-26T09:26:36;3.80;99.90
7028;DHT22;3555;53.248;10.336;2024-02-26T09:29:03;3.80;99.90
7028;DHT22;3555;53.248;10.336;2024-02-26T09:31:32;3.80;99.90
7028;DHT22;3555;53.248;10.336;2024-02-26T09:33:59;3.90;99.90
7028;DHT22;3555;53.248;10.336;2024-02-26T09:36:26;4.00;99.90
7028;DHT22;3555;53.248;10.336;2024-02-26T09:38:53;4.10;99.90
7028;DHT22;3555;53.248;10.336;2024-02-26T09:41:20;4.00;99.90
7028;DHT22;3555;53.248;10.336;2024-02-26T09:43:48;4.10;99.90
7028;DHT22;3555;53.248;10.336;2024-02-26T09:46:16;3.90;99.90
7028;DHT22;3555;53.248;10.336;2024-02-26T09:48:47;3.80;99.90
7028;DHT22;3555;53.248;10.336;2024-02-26T09:51:15;3.90;99.90
7028;DHT22;3555;53.248;10.336;2024-02-26T09:53:43;3.90;99.90
7028;DHT22;3555;53.248;10.336;2024-02-26T09:56:11;4.00;99.90
7028;DHT22;3555;53.248;10.336;2024-02-26T09:58:39;4.10;99.90
7028;DHT22;3555;53.248;10.336;2024-02-26T10:01:13;4.10;99.90
7028;DHT22;3555;53.248;10.336;2024-02-26T10:03:43;4.00;99.90
7028;DHT22;3555;53.248;10.336;2024-02-26T10:06:12;4.10;99.90
7028;DHT22;3555;53.248;10.336;2024-02-26T10:08:40;4.20;99.90
7028;DHT22;3555;53.248;10.336;2024-02-26T10:11:07;4.20;99.90
7028;DHT22;3555;53.248;10.336;2024-02-26T10:13:34;4.30;99.90
7028;DHT22;3555;53.248;10.336;2024-02-26T10:16:01;4.30;99.90
7028;DHT22;3555;53.248;10.336;2024-02-26T10:18:47;4.50;99.90
7028;DHT22;3555;53.248;10.336;2024-02-26T10:21:18;4.50;99.90
7028;DHT22;3555;53.248;10.336;2024-02-26T10:23:45;4.60;99.90
7028;DHT22;3555;53.248;10.336;2024-02-26T10:26:13;4.70;99.90
7028;DHT22;3555;53.248;10.336;2024-02-26T10:28:43;4.80;99.90
7028;DHT22;3555;53.248;10.336;2024-02-26T10:31:10;4.80;99.90
7028;DHT22;3555;53.248;10.336;2024-02-26T10:33:37;4.90;99.90
7028;DHT22;3555;53.248;10.336;2024-02-26T10:36:05;5.00;99.90
7028;DHT22;3555;53.248;10.336;2024-02-26T10:38:35;5.10;99.90
7028;DHT22;3555;53.248;10.336;2024-02-26T10:41:02;5.10;99.90
7028;DHT22;3555;53.248;10.336;2024-02-26T10:43:29;5.10;99.90
7028;DHT22;3555;53.248;10.336;2024-02-26T10:45:56;5.20;99.90
7028;DHT22;3555;53.248;10.336;2024-02-26T10:48:23;5.30;99.90
7028;DHT22;3555;53.248;10.336;2024-02-26T10:50:50;5.20;99.90
7028;DHT22;3555;53.248;10.336;2024-02-26T10:53:20;5.30;99.90
7028;DHT22;3555;53.248;10.336;2024-02-26T10:55:53;5.50;99.90
7028;DHT22;3555;53.248;10.336;2024-02-26T10:58:21;5.50;99.90
7028;DHT22;3555;53.248;10.336;2024-02-26T11:00:50;5.50;99.90
7028;DHT22;3555;53.248;10.336;2024-02-26T11:03:18;5.60;99.90
7028;DHT22;3555;53.248;10.336;2024-02-26T11:05:47;5.80;99.90
7028;DHT22;3555;53.248;10.336;2024-02-26T11:08:15;6.00;99.90
7028;DHT22;3555;53.248;10.336;2024-02-26T11:10:42;6.10;99.90
7028;DHT22;3555;53.248;10.336;2024-02-26T11:13:12;6.30;99.90
7028;DHT22;3555;53.248;10.336;2024-02-26T11:15:43;6.40;99.90
7028;DHT22;3555;53.248;10.336;2024-02-26T11:18:12;6.50;99.90
7028;DHT22;3555;53.248;10.336;2024-02-26T11:20:40;6.70;99.90
7028;DHT22;3555;53.248;10.336;2024-02-26T11:23:08;6.80;99.90
7028;DHT22;3555;53.248;10.336;2024-02-26T11:25:35;6.80;99.90
7028;DHT22;3555;53.248;10.336;2024-02-26T11:28:05;7.00;99.90
7028;DHT22;3555;53.248;10.336;2024-02-26T11:30:38;7.00;99.90
7028;DHT22;3555;53.248;10.336;2024-02-26T11:33:08;7.10;99.90
7028;DHT22;3555;53.248;10.336;2024-02-26T11:35:36;7.10;99.90
7028;DHT22;3555;53.248;10.336;2024-02-26T11:38:03;7.20;99.90
7028;DHT22;3555;53.248;10.336;2024-02-26T11:40:32;7.40;99.90
7028;DHT22;3555;53.248;10.336;2024-02-26T11:42:59;7.50;99.90
7028;DHT22;3555;53.248;10.336;2024-02-26T11:45:50;7.60;99.90
7028;DHT22;3555;53.248;10.336;2024-02-26T11:48:21;7.80;99.90
7028;DHT22;3555;53.248;10.336;2024-02-26T11:50:49;7.70;99.90
7028;DHT22;3555;53.248;10.336;2024-02-26T11:53:23;7.80;99.90
7028;DHT22;3555;53.248;10.336;2024-02-26T11:56:14;7.90;99.90
7028;DHT22;3555;53.248;10.336;2024-02-26T11:58:47;8.00;99.90
7028;DHT22;3555;53.248;10.336;2024-02-26T12:01:38;8.10;99.90
7028;DHT22;3555;53.248;10.336;2024-02-26T12:04:06;8.10;99.90
7028;DHT22;3555;53.248;10.336;2024-02-26T12:06:41;8.20;99.90
7028;DHT22;3555;53.248;10.336;2024-02-26T12:09:08;8.10;99.90
7028;DHT22;3555;53.248;10.336;2024-02-26T12:11:37;8.10;99.90
7028;DHT22;3555;53.248;10.336;2024-02-26T12:14:05;8.20;99.90
7028;DHT22;3555;53.248;10.336;2024-02-26T12:16:39;8.20;99.90
7028;DHT22;3555;53.248;10.336;2024-02-26T12:19:09;8.20;99.90
7028;DHT22;3555;53.248;10.336;2024-02-26T12:21:37;8.30;99.90
7028;DHT22;3555;53.248;10.336;2024-02-26T12:24:10;8.40;99.90
7028;DHT22;3555;53.248;10.336;2024-02-26T12:26:37;8.50;99.90
7028;DHT22;3555;53.248;10.336;2024-02-26T12:29:04;8.50;99.90
7028;DHT22;3555;53.248;10.336;2024-02-26T12:31:31;8.60;99.90
7028;DHT22;3555;53.248;10.336;2024-02-26T12:34:00;8.60;99.90
7028;DHT22;3555;53.248;10.336;2024-02-26T12:36:27;8.70;99.90
7028;DHT22;3555;53.248;10.336;2024-02-26T12:38:54;8.70;99.90
7028;DHT22;3555;53.248;10.336;2024-02-26T12:41:21;8.90;99.90
7028;DHT22;3555;53.248;10.336;2024-02-26T12:43:49;8.90;99.90
7028;DHT22;3555;53.248;10.336;2024-02-26T12:46:15;9.00;99.90
7028;DHT22;3555;53.248;10.336;2024-02-26T12:48:43;9.00;99.90
7028;DHT22;3555;53.248;10.336;2024-02-26T12:51:13;9.20;99.90
7028;DHT22;3555;53.248;10.336;2024-02-26T12:53:41;9.10;99.90
7028;DHT22;3555;53.248;10.336;2024-02-26T12:56:09;9.10;99.90
7028;DHT22;3555;53.248;10.336;2024-02-26T12:58:39;9.10;99.90
7028;DHT22;3555;53.248;10.336;2024-02-26T13:01:06;9.10;99.90
7028;DHT22;3555;53.248;10.336;2024-02-26T13:03:35;9.00;99.90
7028;DHT22;3555;53.248;10.336;2024-02-26T13:06:03;9.00;99.90
7028;DHT22;3555;53.248;10.336;2024-02-26T13:08:32;9.00;99.90
7028;DHT22;3555;53.248;10.336;2024-02-26T13:10:59;9.10;99.90
7028;DHT22;3555;53.248;10.336;2024-02-26T13:13:26;9.20;99.90
7028;DHT22;3555;53.248;10.336;2024-02-26T13:16:02;9.30;99.90
7028;DHT22;3555;53.248;10.336;2024-02-26T13:18:29;9.30;99.90
7028;DHT22;3555;53.248;10.336;2024-02-26T13:21:09;9.30;99.90
7028;DHT22;3555;53.248;10.336;2024-02-26T13:23:38;9.50;99.90
7028;DHT22;3555;53.248;10.336;2024-02-26T13:26:06;9.30;99.90
7028;DHT22;3555;53.248;10.336;2024-02-26T13:28:33;9.30;99.90
7028;DHT22;3555;53.248;10.336;2024-02-26T13:31:00;9.50;99.90
7028;DHT22;3555;53.248;10.336;2024-02-26T13:33:30;9.50;99.90
7028;DHT22;3555;53.248;10.336;2024-02-26T13:35:58;9.50;99.90
7028;DHT22;3555;53.248;10.336;2024-02-26T13:38:25;9.50;99.90
7028;DHT22;3555;53.248;10.336;2024-02-26T13:40:54;9.60;99.90
7028;DHT22;3555;53.248;10.336;2024-02-26T13:43:21;9.50;99.90
7028;DHT22;3555;53.248;10.336;2024-02-26T13:45:48;9.50;99.90
7028;DHT22;3555;53.248;10.336;2024-02-26T13:48:15;9.70;99.90
7028;DHT22;3555;53.248;10.336;2024-02-26T13:50:42;9.70;99.90
7028;DHT22;3555;53.248;10.336;2024-02-26T13:53:11;9.70;99.90
7028;DHT22;3555;53.248;10.336;2024-02-26T13:55:39;9.70;99.90
7028;DHT22;3555;53.248;10.336;2024-02-26T13:58:11;9.70;99.90
7028;DHT22;3555;53.248;10.336;2024-02-26T14:00:39;9.60;99.90
7028;DHT22;3555;53.248;10.336;2024-02-26T14:03:07;9.60;99.90
7028;DHT22;3555;53.248;10.336;2024-02-26T14:05:34;9.40;99.90
7028;DHT22;3555;53.248;10.336;2024-02-26T14:08:01;9.30;99.90
7028;DHT22;3555;53.248;10.336;2024-02-26T14:10:28;9.40;99.90
7028;DHT22;3555;53.248;10.336;2024-02-26T14:12:55;9.30;99.90
7028;DHT22;3555;53.248;10.336;2024-02-26T14:15:24;9.20;99.90
7028;DHT22;3555;53.248;10.336;2024-02-26T14:17:51;9.30;99.90
7028;DHT22;3555;53.248;10.336;2024-02-26T14:20:22;9.10;99.90
7028;DHT22;3555;53.248;10.336;2024-02-26T14:22:48;9.20;99.90
7028;DHT22;3555;53.248;10.336;2024-02-26T14:25:16;9.30;99.90
7028;DHT22;3555;53.248;10.336;2024-02-26T14:27:43;9.20;99.90
7028;DHT22;3555;53.248;10.336;2024-02-26T14:30:11;9.20;99.90
7028;DHT22;3555;53.248;10.336;2024-02-26T14:32:39;9.30;99.90
7028;DHT22;3555;53.248;10.336;2024-02-26T14:35:07;9.40;99.90
7028;DHT22;3555;53.248;10.336;2024-02-26T14:37:34;9.40;99.90
7028;DHT22;3555;53.248;10.336;2024-02-26T14:40:01;9.50;99.90
7028;DHT22;3555;53.248;10.336;2024-02-26T14:42:28;9.50;99.90
7028;DHT22;3555;53.248;10.336;2024-02-26T14:44:55;9.50;99.90
7028;DHT22;3555;53.248;10.336;2024-02-26T14:47:22;9.50;99.90
7028;DHT22;3555;53.248;10.336;2024-02-26T14:49:50;9.50;99.90
7028;DHT22;3555;53.248;10.336;2024-02-26T14:52:17;9.60;99.90
7028;DHT22;3555;53.248;10.336;2024-02-26T14:54:44;9.50;99.90
7028;DHT22;3555;53.248;10.336;2024-02-26T14:57:11;9.30;99.90
7028;DHT22;3555;53.248;10.336;2024-02-26T14:59:38;9.40;99.90
7028;DHT22;3555;53.248;10.336;2024-02-26T15:02:05;9.40;99.90
7028;DHT22;3555;53.248;10.336;2024-02-26T15:04:35;9.30;99.90
7028;DHT22;3555;53.248;10.336;2024-02-26T15:07:03;9.20;99.90
7028;DHT22;3555;53.248;10.336;2024-02-26T15:09:30;9.20;99.90
7028;DHT22;3555;53.248;10.336;2024-02-26T15:11:57;9.20;99.90
7028;DHT22;3555;53.248;10.336;2024-02-26T15:14:24;9.10;99.90
7028;DHT22;3555;53.248;10.336;2024-02-26T15:16:52;9.10;99.90
7028;DHT22;3555;53.248;10.336;2024-02-26T15:19:19;9.10;99.90
7028;DHT22;3555;53.248;10.336;2024-02-26T15:21:46;9.00;99.90
7028;DHT22;3555;53.248;10.336;2024-02-26T15:24:16;9.00;99.90
7028;DHT22;3555;53.248;10.336;2024-02-26T15:26:43;8.80;99.90
7028;DHT22;3555;53.248;10.336;2024-02-26T15:29:10;8.80;99.90
7028;DHT22;3555;53.248;10.336;2024-02-26T15:31:37;8.70;99.90
7028;DHT22;3555;53.248;10.336;2024-02-26T15:34:04;8.80;99.90
7028;DHT22;3555;53.248;10.336;2024-02-26T15:36:31;8.50;99.90
7028;DHT22;3555;53.248;10.336;2024-02-26T15:38:58;8.50;99.90
7028;DHT22;3555;53.248;10.336;2024-02-26T15:41:26;8.70;99.90
7028;DHT22;3555;53.248;10.336;2024-02-26T15:43:53;8.80;99.90
7028;DHT22;3555;53.248;10.336;2024-02-26T15:46:19;8.60;99.90
7028;DHT22;3555;53.248;10.336;2024-02-26T15:48:46;8.50;99.90
7028;DHT22;3555;53.248;10.336;2024-02-26T15:51:20;8.40;99.90
7028;DHT22;3555;53.248;10.336;2024-02-26T15:53:47;8.50;99.90
7028;DHT22;3555;53.248;10.336;2024-02-26T15:56:15;8.60;99.90
7028;DHT22;3555;53.248;10.336;2024-02-26T15:58:43;8.50;99.90
7028;DHT22;3555;53.248;10.336;2024-02-26T16:01:10;8.40;99.90
7028;DHT22;3555;53.248;10.336;2024-02-26T16:03:38;8.40;99.90
7028;DHT22;3555;53.248;10.336;2024-02-26T16:06:05;8.40;99.90